Time;durP1;ratioP1;P1;durP2;ratioP2;P2;SDS_P1;SDS_P2;PMS_P1;PMS_P2;Temp;Humidity;BMP_temperature;BMP_pressure;BME280_temperature;BME280_humidity;BME280_pressure;Samples;Min_cycle;Max_cycle;Signal;HPM_P1;HPM_P2
2023/09/20 00:01:52;;;;;;;4.78;1.90;;;;;;;19.08;59.47;100841.09;5055441;28;20105;-67
2023/09/20 00:04:20;;;;;;;4.63;1.92;;;;;;;19.06;59.56;100834.31;5056556;28;20068;-67
2023/09/20 00:06:48;;;;;;;6.75;2.20;;;;;;;19.05;59.67;100832.69;5061762;27;20443;-67
2023/09/20 00:09:17;;;;;;;4.28;2.13;;;;;;;19.05;59.55;100829.97;5057249;28;20048;-67
2023/09/20 00:11:46;;;;;;;4.10;1.90;;;;;;;19.04;59.69;100831.06;5059069;27;20055;-67
2023/09/20 00:14:14;;;;;;;5.43;1.60;;;;;;;19.03;59.54;100841.16;5058861;28;20045;-67
2023/09/20 00:16:43;;;;;;;6.35;1.92;;;;;;;19.03;59.77;100843.06;5094406;27;20144;-67
2023/09/20 00:19:11;;;;;;;6.55;1.98;;;;;;;19.04;59.69;100831.06;5056912;27;20041;-68
2023/09/20 00:21:39;;;;;;;5.10;2.03;;;;;;;19.02;59.54;100842.25;5059014;28;20048;-67
2023/09/20 00:24:07;;;;;;;3.92;1.77;;;;;;;19.01;59.70;100847.97;5058965;27;20045;-67
2023/09/20 00:26:35;;;;;;;3.65;1.63;;;;;;;19.00;59.59;100838.97;5058911;28;20057;-67
2023/09/20 00:29:04;;;;;;;4.15;1.77;;;;;;;19.00;59.73;100838.16;5058839;28;20045;-67
2023/09/20 00:31:33;;;;;;;6.85;1.85;;;;;;;18.93;59.63;100826.75;5077698;27;20047;-67
2023/09/20 00:34:03;;;;;;;5.65;1.88;;;;;;;18.98;59.90;100843.88;5066131;27;20044;-67
2023/09/20 00:36:32;;;;;;;5.85;1.60;;;;;;;18.96;59.56;100837.91;5076864;27;20057;-68
2023/09/20 00:39:00;;;;;;;6.03;1.73;;;;;;;18.97;59.51;100825.09;5067396;27;20045;-67
2023/09/20 00:41:28;;;;;;;3.63;1.58;;;;;;;18.91;59.55;100831.66;5062573;27;20045;-67
2023/09/20 00:43:58;;;;;;;6.80;1.90;;;;;;;18.95;59.63;100841.72;5069005;27;20134;-68
2023/09/20 00:46:26;;;;;;;4.68;2.55;;;;;;;18.80;59.62;100815.34;5098206;27;20055;-68
2023/09/20 00:48:55;;;;;;;6.03;2.65;;;;;;;18.93;59.67;100829.47;5066459;27;20063;-67
2023/09/20 00:51:26;;;;;;;6.30;2.08;;;;;;;18.93;59.66;100829.47;5094816;27;20035;-67
2023/09/20 00:53:58;;;;;;;6.32;2.78;;;;;;;18.92;59.81;100817.75;5082679;27;20077;-67
2023/09/20 00:56:26;;;;;;;6.88;2.28;;;;;;;18.91;59.83;100826.22;5042680;27;20062;-67
2023/09/20 00:58:55;;;;;;;5.07;1.80;;;;;;;18.87;59.79;100809.59;5070814;27;20553;-67
2023/09/20 01:01:26;;;;;;;4.60;1.73;;;;;;;18.89;59.84;100818.31;5083883;27;20057;-67
2023/09/20 01:03:55;;;;;;;3.75;1.70;;;;;;;18.87;59.68;100819.69;5068213;27;20499;-68
2023/09/20 01:06:26;;;;;;;4.15;1.75;;;;;;;18.85;59.98;100826.22;5059480;27;20037;-67
2023/09/20 01:08:55;;;;;;;3.95;1.90;;;;;;;18.87;59.71;100827.84;5061933;27;20060;-67
2023/09/20 01:11:23;;;;;;;5.55;2.08;;;;;;;18.85;59.89;100828.13;5080119;27;20045;-67
2023/09/20 01:13:52;;;;;;;5.43;1.70;;;;;;;18.84;59.90;100830.03;5067217;27;20098;-67
2023/09/20 01:16:20;;;;;;;4.07;1.77;;;;;;;18.83;59.99;100825.69;5043445;27;20053;-67
2023/09/20 01:18:48;;;;;;;4.05;2.20;;;;;;;18.83;59.87;100836.59;5045379;27;20110;-67
2023/09/20 01:21:16;;;;;;;4.90;2.08;;;;;;;18.82;59.79;100831.41;5048602;27;20060;-67
2023/09/20 01:23:45;;;;;;;3.72;1.33;;;;;;;18.81;59.90;100825.16;5059255;27;20098;-67
2023/09/20 01:26:13;;;;;;;2.88;1.55;;;;;;;18.82;59.92;100824.06;5058131;27;20037;-67
2023/09/20 01:28:42;;;;;;;5.07;2.08;;;;;;;18.82;59.99;100831.41;5063398;28;20083;-67
2023/09/20 01:31:10;;;;;;;4.05;2.00;;;;;;;18.80;59.81;100825.44;5065561;28;20058;-67
2023/09/20 01:33:38;;;;;;;4.15;1.70;;;;;;;18.81;59.95;100827.06;5048888;27;20387;-68
2023/09/20 01:36:06;;;;;;;5.03;2.00;;;;;;;18.69;60.05;100807.50;5051700;27;20090;-68
2023/09/20 01:38:34;;;;;;;3.95;2.00;;;;;;;18.79;60.09;100821.06;5059096;28;20070;-67
2023/09/20 01:41:04;;;;;;;4.82;2.45;;;;;;;18.77;59.98;100810.47;5056491;27;20037;-67
2023/09/20 01:43:33;;;;;;;4.93;2.22;;;;;;;18.78;59.98;100808.56;5061657;27;20073;-67
2023/09/20 01:46:02;;;;;;;5.03;1.60;;;;;;;18.70;60.00;100792.78;5066906;27;20049;-67
2023/09/20 01:48:31;;;;;;;6.45;1.67;;;;;;;18.77;60.10;100815.91;5063103;27;20072;-67
2023/09/20 01:50:59;;;;;;;6.85;2.05;;;;;;;18.77;59.98;100815.09;5106822;27;20048;-67
2023/09/20 01:53:27;;;;;;;4.00;1.90;;;;;;;18.77;60.19;100805.00;5095211;27;20046;-67
2023/09/20 01:55:55;;;;;;;4.72;1.98;;;;;;;18.75;60.05;100801.75;5081940;27;20059;-67
2023/09/20 01:58:24;;;;;;;5.38;2.38;;;;;;;18.75;60.40;100799.03;5089015;27;20045;-67
2023/09/20 02:00:52;;;;;;;3.70;1.70;;;;;;;18.74;60.16;100800.13;5092145;27;20056;-67
2023/09/20 02:03:20;;;;;;;4.07;1.60;;;;;;;18.75;60.19;100801.75;5082555;27;20050;-67
2023/09/20 02:05:49;;;;;;;4.38;1.98;;;;;;;18.74;60.27;100802.84;5069371;27;20057;-67
2023/09/20 02:08:18;;;;;;;5.85;1.75;;;;;;;18.74;60.43;100788.41;5077865;27;20041;-66
2023/09/20 02:10:47;;;;;;;6.18;2.65;;;;;;;18.73;60.34;100787.59;5080876;27;20052;-67
2023/09/20 02:13:16;;;;;;;6.22;2.08;;;;;;;18.74;60.44;100782.97;5075863;27;20045;-67
2023/09/20 02:15:47;;;;;;;5.38;2.35;;;;;;;18.73;60.42;100778.63;5086500;27;20091;-67
2023/09/20 02:18:15;;;;;;;4.10;1.85;;;;;;;18.74;60.50;100777.53;5072912;27;20289;-67
2023/09/20 02:20:44;;;;;;;4.80;1.70;;;;;;;18.74;60.49;100774.81;5071895;27;20041;-67
2023/09/20 02:23:12;;;;;;;5.05;1.90;;;;;;;18.73;60.40;100770.44;5091256;27;20041;-67
2023/09/20 02:25:41;;;;;;;7.25;1.67;;;;;;;18.73;60.39;100773.16;5087984;27;20053;-67
2023/09/20 02:28:10;;;;;;;3.55;1.85;;;;;;;18.74;60.33;100774.81;5063412;27;20071;-66
2023/09/20 02:30:38;;;;;;;5.20;1.90;;;;;;;18.73;60.29;100765.81;5078925;27;20077;-67
2023/09/20 02:33:10;;;;;;;6.00;2.08;;;;;;;18.70;60.56;100757.41;5113221;27;20069;-67
2023/09/20 02:35:39;;;;;;;8.40;2.28;;;;;;;18.73;60.46;100759.56;5068925;27;20061;-67
2023/09/20 02:38:09;;;;;;;4.70;2.10;;;;;;;18.71;60.59;100762.56;5063814;27;20053;-67
2023/09/20 02:40:37;;;;;;;4.50;2.05;;;;;;;18.70;60.54;100755.47;5063941;27;20128;-67
2023/09/20 02:43:08;;;;;;;5.53;1.67;;;;;;;18.70;60.50;100758.22;5097180;27;20091;-66
2023/09/20 02:45:39;;;;;;;4.38;1.77;;;;;;;18.69;60.38;100766.66;5069154;27;20385;-67
2023/09/20 02:48:09;;;;;;;3.92;1.70;;;;;;;18.68;60.67;100760.38;5064108;27;20058;-66
2023/09/20 02:50:41;;;;;;;5.63;2.40;;;;;;;18.68;60.54;100759.56;5070086;27;20044;-66
2023/09/20 02:53:09;;;;;;;5.53;2.15;;;;;;;18.68;60.66;100749.50;5069726;27;20049;-67
2023/09/20 02:55:38;;;;;;;8.13;2.78;;;;;;;18.67;60.70;100747.06;5070961;27;20072;-66
2023/09/20 02:58:07;;;;;;;2.67;1.60;;;;;;;18.68;60.75;100751.41;5071663;27;20425;-66
2023/09/20 03:00:38;;;;;;;5.90;1.85;;;;;;;18.65;60.77;100741.88;5072544;27;20152;-67
2023/09/20 03:03:07;;;;;;;7.32;2.10;;;;;;;18.64;60.62;100742.97;5064285;27;20050;-67
2023/09/20 03:05:37;;;;;;;3.20;1.52;;;;;;;18.65;60.82;100735.63;5064930;27;20183;-67
2023/09/20 03:08:11;;;;;;;3.80;1.67;;;;;;;18.64;60.85;100747.63;5105164;27;20447;-67
2023/09/20 03:10:41;;;;;;;3.83;1.70;;;;;;;18.64;60.42;100742.16;5104642;27;20052;-67
2023/09/20 03:13:16;;;;;;;3.65;1.95;;;;;;;18.63;60.66;100735.91;5096400;27;20033;-67
2023/09/20 03:15:44;;;;;;;3.35;1.70;;;;;;;18.64;60.71;100739.44;5077692;27;20087;-67
2023/09/20 03:18:13;;;;;;;6.35;1.60;;;;;;;18.62;60.86;100739.72;5061614;27;20048;-67
2023/09/20 03:20:44;;;;;;;5.63;2.47;;;;;;;18.61;60.80;100740.81;5060732;28;20117;-67
2023/09/20 03:23:13;;;;;;;5.63;1.95;;;;;;;18.55;60.81;100733.72;5088997;27;20073;-67
2023/09/20 03:25:41;;;;;;;4.60;1.70;;;;;;;18.61;60.72;100737.28;5087560;27;20507;-67
2023/09/20 03:28:09;;;;;;;4.72;1.90;;;;;;;18.59;60.90;100732.09;5067428;27;20132;-67
2023/09/20 03:30:39;;;;;;;4.05;1.95;;;;;;;18.59;60.89;100725.81;5068234;27;20090;-67
2023/09/20 03:33:08;;;;;;;7.50;2.35;;;;;;;18.60;60.78;100724.72;5063957;27;20088;-67
2023/09/20 03:35:37;;;;;;;3.28;1.60;;;;;;;18.53;60.84;100711.41;5059727;27;20053;-67
2023/09/20 03:38:08;;;;;;;6.20;2.10;;;;;;;18.59;60.75;100714.94;5075280;27;20049;-67
2023/09/20 03:40:37;;;;;;;6.35;1.98;;;;;;;18.58;60.87;100714.13;5059435;27;20041;-67
2023/09/20 03:43:07;;;;;;;5.70;1.85;;;;;;;18.58;60.89;100716.03;5065040;27;20152;-67
2023/09/20 03:45:35;;;;;;;5.38;2.33;;;;;;;18.58;60.80;100716.03;5076818;27;20070;-67
2023/09/20 03:48:05;;;;;;;3.63;1.80;;;;;;;18.57;60.82;100722.56;5081579;27;20045;-67
2023/09/20 03:50:33;;;;;;;3.85;1.88;;;;;;;18.57;60.96;100728.00;5082077;27;20057;-67
2023/09/20 03:53:01;;;;;;;5.70;1.60;;;;;;;18.55;61.02;100722.84;5066565;27;20045;-67
2023/09/20 03:55:33;;;;;;;3.97;1.88;;;;;;;18.54;61.06;100727.47;5075108;27;20072;-67
2023/09/20 03:58:00;;;;;;;2.75;1.52;;;;;;;18.55;60.95;100722.84;5083083;27;20101;-67
2023/09/20 04:00:31;;;;;;;5.03;1.95;;;;;;;18.54;61.09;100718.50;5088009;27;20064;-67
2023/09/20 04:03:01;;;;;;;3.38;1.70;;;;;;;18.52;61.10;100721.50;5057904;27;20045;-67
2023/09/20 04:05:31;;;;;;;8.63;2.40;;;;;;;18.53;61.10;100714.16;5076930;27;20084;-67
2023/09/20 04:08:16;;;;;;;3.55;1.70;;;;;;;18.52;61.02;100716.06;5061658;27;20398;-67
2023/09/20 04:10:46;;;;;;;4.97;1.77;;;;;;;18.51;60.97;100708.97;5059575;27;20120;-67
2023/09/20 04:13:14;;;;;;;4.72;1.80;;;;;;;18.52;60.87;100715.22;5059195;27;20044;-67
2023/09/20 04:15:42;;;;;;;4.13;2.03;;;;;;;18.52;60.89;100710.59;5060278;27;20140;-67
2023/09/20 04:18:11;;;;;;;3.22;1.67;;;;;;;18.51;61.12;100706.25;5062554;27;20130;-67
2023/09/20 04:20:39;;;;;;;4.22;2.00;;;;;;;18.50;61.07;100701.91;5060314;27;20045;-67
2023/09/20 04:23:07;;;;;;;3.60;1.63;;;;;;;18.50;60.94;100706.53;5068171;27;20417;-67
2023/09/20 04:25:35;;;;;;;4.32;1.80;;;;;;;18.49;61.12;100703.00;5062294;27;20053;-67
2023/09/20 04:28:05;;;;;;;8.63;1.83;;;;;;;18.49;61.04;100691.28;5062639;27;20062;-67
2023/09/20 04:30:34;;;;;;;5.30;2.03;;;;;;;18.48;61.09;100695.09;5088758;27;20101;-67
2023/09/20 04:33:02;;;;;;;8.32;2.00;;;;;;;18.47;61.37;100693.47;5058237;27;20112;-67
2023/09/20 04:35:30;;;;;;;6.10;2.03;;;;;;;18.45;61.34;100688.31;5075307;27;20048;-67
2023/09/20 04:37:58;;;;;;;2.78;1.65;;;;;;;18.45;61.39;100682.88;5062671;27;20052;-67
2023/09/20 04:40:26;;;;;;;4.55;2.30;;;;;;;18.44;61.14;100680.44;5102254;27;20050;-67
2023/09/20 04:42:54;;;;;;;3.35;1.55;;;;;;;18.44;61.32;100677.72;5084955;27;20045;-69
2023/09/20 04:45:23;;;;;;;4.95;1.90;;;;;;;18.42;61.23;100672.53;5083258;27;20056;-69
2023/09/20 04:47:51;;;;;;;4.05;1.45;;;;;;;18.42;61.27;100677.97;5094368;27;20059;-67
2023/09/20 04:50:19;;;;;;;6.32;2.80;;;;;;;18.42;61.40;100677.97;5078127;27;20073;-66
2023/09/20 04:52:50;;;;;;;3.15;1.42;;;;;;;18.40;61.33;100673.91;5099517;27;20058;-66
2023/09/20 04:55:19;;;;;;;4.88;1.77;;;;;;;18.40;61.35;100673.91;5096423;27;20737;-68
2023/09/20 04:57:47;;;;;;;5.78;1.80;;;;;;;18.39;61.29;100675.00;5083931;27;20045;-67
2023/09/20 05:00:20;;;;;;;4.18;1.95;;;;;;;18.40;61.55;100673.91;5093894;27;20046;-66
2023/09/20 05:02:50;;;;;;;6.07;1.80;;;;;;;18.40;61.64;100674.72;5097315;27;20050;-69
2023/09/20 05:05:18;;;;;;;2.65;1.60;;;;;;;18.41;61.56;100665.47;5059710;27;20076;-67
2023/09/20 05:07:46;;;;;;;5.93;1.90;;;;;;;18.39;61.40;100666.84;5092133;27;20074;-68
2023/09/20 05:10:14;;;;;;;3.92;1.70;;;;;;;18.40;61.60;100668.47;5061318;28;20049;-69
2023/09/20 05:12:42;;;;;;;4.60;1.83;;;;;;;18.50;61.80;100661.06;5075903;27;20156;-67
2023/09/20 05:15:12;;;;;;;3.05;1.40;;;;;;;18.47;61.44;100666.25;5082131;27;20056;-67
2023/09/20 05:17:41;;;;;;;5.95;2.22;;;;;;;18.44;61.46;100667.63;5077892;27;20067;-69
2023/09/20 05:20:12;;;;;;;4.75;1.77;;;;;;;18.43;62.12;100660.56;5063116;27;20083;-67
2023/09/20 05:22:41;;;;;;;5.57;1.90;;;;;;;18.44;62.33;100666.81;5070143;27;20041;-67
2023/09/20 05:25:09;;;;;;;6.60;1.83;;;;;;;18.54;61.83;100678.47;5058572;28;20049;-67
2023/09/20 05:27:37;;;;;;;3.45;1.73;;;;;;;18.46;62.42;100657.28;5060994;27;20055;-67
2023/09/20 05:30:06;;;;;;;4.93;1.83;;;;;;;18.45;61.93;100668.44;5074168;27;20041;-66
2023/09/20 05:32:35;;;;;;;6.97;2.03;;;;;;;18.42;61.90;100658.94;4719244;27;10000548;-67
2023/09/20 05:35:06;;;;;;;2.75;1.60;;;;;;;18.44;62.06;100666.81;5075011;27;20078;-66
2023/09/20 05:37:38;;;;;;;3.28;1.63;;;;;;;18.41;61.93;100657.31;5059454;27;20049;-68
2023/09/20 05:40:13;;;;;;;4.88;2.17;;;;;;;18.41;61.80;100657.31;5066781;27;20045;-66
2023/09/20 05:42:41;;;;;;;4.00;1.70;;;;;;;18.39;62.29;100656.78;5078083;27;20121;-67
2023/09/20 05:45:10;;;;;;;4.47;1.50;;;;;;;18.39;61.81;100662.22;5072700;27;20039;-66
2023/09/20 05:47:38;;;;;;;4.47;1.70;;;;;;;18.38;62.12;100660.59;5056060;28;20118;-66
2023/09/20 05:50:07;;;;;;;5.30;1.70;;;;;;;18.38;62.36;100663.31;5072731;27;20038;-66
2023/09/20 05:52:37;;;;;;;5.35;1.75;;;;;;;18.39;61.95;100661.41;5069582;27;20041;-66
2023/09/20 05:55:11;;;;;;;6.82;1.80;;;;;;;18.40;62.17;100660.31;5072028;27;20055;-66
2023/09/20 05:57:39;;;;;;;4.43;1.50;;;;;;;18.42;62.44;100667.09;5073597;27;20061;-67
2023/09/20 06:00:12;;;;;;;4.22;1.63;;;;;;;18.47;62.63;100669.81;5071065;27;20057;-66
2023/09/20 06:02:42;;;;;;;2.95;1.50;;;;;;;18.44;61.79;100662.19;5088651;27;20456;-66
2023/09/20 06:05:11;;;;;;;2.83;2.00;;;;;;;18.54;63.07;100667.59;5072024;27;20052;-66
2023/09/20 06:07:41;;;;;;;4.10;1.60;;;;;;;18.47;62.08;100667.06;5077324;27;20055;-64
2023/09/20 06:10:09;;;;;;;8.80;2.25;;;;;;;18.57;63.15;100665.41;5070876;27;20058;-67
2023/09/20 06:12:37;;;;;;;5.95;1.80;;;;;;;18.57;63.36;100668.94;5129086;27;20066;-66
2023/09/20 06:15:08;;;;;;;4.20;1.95;;;;;;;18.41;62.68;100657.31;5118492;27;20048;-67
2023/09/20 06:17:36;;;;;;;6.82;1.80;;;;;;;18.44;63.14;100672.25;5146640;27;20047;-67
2023/09/20 06:20:08;;;;;;;6.10;2.00;;;;;;;18.40;62.92;100663.84;5145991;27;20045;-66
2023/09/20 06:22:36;;;;;;;5.97;1.50;;;;;;;18.41;63.13;100657.31;5075143;27;20049;-67
2023/09/20 06:25:06;;;;;;;4.43;1.80;;;;;;;18.42;62.75;100672.53;5083525;27;20112;-67
2023/09/20 06:27:35;;;;;;;2.00;1.35;;;;;;;18.39;62.90;100658.69;5118472;27;20497;-67
2023/09/20 06:30:07;;;;;;;3.30;1.58;;;;;;;18.54;63.53;100659.44;5096882;27;20046;-68
2023/09/20 06:32:35;;;;;;;4.82;1.80;;;;;;;18.48;63.03;100662.44;5071760;27;20049;-67
2023/09/20 06:35:04;;;;;;;8.70;2.13;;;;;;;18.50;63.26;100669.25;5097920;27;20047;-67
2023/09/20 06:37:33;;;;;;;5.15;1.70;;;;;;;18.49;62.99;100672.25;5096186;27;20065;-69
2023/09/20 06:40:03;;;;;;;6.72;1.75;;;;;;;18.68;63.94;100675.19;5081366;27;20133;-68
2023/09/20 06:42:32;;;;;;;3.47;1.67;;;;;;;18.60;63.20;100662.94;5119308;27;20055;-68
2023/09/20 06:45:00;;;;;;;3.92;1.60;;;;;;;18.57;63.11;100663.50;5149252;27;20119;-68
2023/09/20 06:47:28;;;;;;;4.53;1.60;;;;;;;18.57;63.09;100654.53;5146516;27;20572;-68
2023/09/20 06:49:57;;;;;;;5.88;2.20;;;;;;;18.55;63.23;100649.34;5148168;27;20058;-67
2023/09/20 06:52:25;;;;;;;2.80;1.55;;;;;;;18.73;64.66;100648.75;5147750;27;20046;-67
2023/09/20 06:54:53;;;;;;;5.80;1.58;;;;;;;18.74;63.10;100658.53;5147661;27;20518;-67
2023/09/20 06:57:22;;;;;;;4.72;1.67;;;;;;;18.67;63.08;100660.75;5143969;27;20043;-67
2023/09/20 06:59:52;;;;;;;2.70;1.60;;;;;;;18.64;63.31;100661.31;5144404;27;20051;-67
2023/09/20 07:02:20;;;;;;;5.88;1.65;;;;;;;18.90;62.73;100659.28;5135606;27;20147;-67
2023/09/20 07:04:48;;;;;;;4.38;1.55;;;;;;;18.83;63.56;100659.59;5139867;27;20451;-68
2023/09/20 07:07:16;;;;;;;4.57;1.55;;;;;;;19.27;62.29;100656.00;5141056;27;20937;-68
2023/09/20 07:09:45;;;;;;;4.75;1.75;;;;;;;19.00;62.43;100655.66;5140265;27;20051;-70
2023/09/20 07:12:13;;;;;;;4.20;1.88;;;;;;;18.84;62.94;100649.50;4786780;27;10000007;-68
2023/09/20 07:14:41;;;;;;;6.60;2.22;;;;;;;18.77;63.61;100654.44;5131494;27;20043;-67
2023/09/20 07:17:11;;;;;;;4.57;1.55;;;;;;;18.99;64.25;100652.13;5134069;27;20094;-68
2023/09/20 07:19:39;;;;;;;5.43;2.00;;;;;;;18.93;63.23;100649.72;5132590;27;20131;-68
2023/09/20 07:22:07;;;;;;;4.78;2.03;;;;;;;18.92;63.04;100646.19;5139097;27;20043;-68
2023/09/20 07:24:35;;;;;;;4.15;1.70;;;;;;;18.87;63.45;100639.97;5135414;27;20089;-67
2023/09/20 07:27:04;;;;;;;5.60;1.80;;;;;;;18.81;63.55;100642.72;5128101;27;20756;-68
2023/09/20 07:29:36;;;;;;;3.50;1.55;;;;;;;18.98;63.52;100639.63;5139583;27;20380;-68
2023/09/20 07:32:05;;;;;;;3.90;1.40;;;;;;;18.93;63.37;100645.09;5129770;27;20047;-68
2023/09/20 07:34:35;;;;;;;4.80;1.70;;;;;;;18.83;63.46;100637.81;5132375;27;20043;-68
2023/09/20 07:37:07;;;;;;;3.63;1.58;;;;;;;18.95;63.15;100651.06;5132642;27;21109;-68
2023/09/20 07:39:35;;;;;;;4.38;1.50;;;;;;;18.85;63.62;100649.22;5126741;27;20103;-68
2023/09/20 07:42:05;;;;;;;5.20;1.60;;;;;;;18.78;63.92;100651.44;5135981;27;20088;-68
2023/09/20 07:44:35;;;;;;;5.30;1.60;;;;;;;18.91;63.95;100654.63;5097198;27;20081;-68
2023/09/20 07:47:04;;;;;;;2.78;1.35;;;;;;;19.01;63.63;100655.38;5081098;27;20060;-68
2023/09/20 07:49:32;;;;;;;4.25;1.85;;;;;;;19.56;63.59;100656.06;5069721;27;20174;-68
2023/09/20 07:52:04;;;;;;;7.07;1.70;;;;;;;19.30;62.86;100665.50;5095382;27;20072;-69
2023/09/20 07:54:32;;;;;;;3.88;1.60;;;;;;;19.05;63.24;100655.63;5084767;27;20046;-68
2023/09/20 07:56:59;;;;;;;4.38;1.50;;;;;;;18.96;63.83;100665.50;5074514;27;20561;-68
2023/09/20 07:59:27;;;;;;;2.75;1.42;;;;;;;18.90;63.84;100659.28;5093109;27;20067;-69
2023/09/20 08:01:55;;;;;;;5.35;1.90;;;;;;;18.84;64.03;100661.22;5077350;27;20052;-69
2023/09/20 08:04:23;;;;;;;3.47;1.55;;;;;;;18.90;63.85;100650.28;5074194;27;20045;-69
2023/09/20 08:06:53;;;;;;;3.58;1.92;;;;;;;19.16;63.87;100657.16;5081850;27;20057;-70
2023/09/20 08:09:23;;;;;;;6.03;1.90;;;;;;;19.02;63.59;100654.28;5090028;27;20049;-69
2023/09/20 08:11:51;;;;;;;2.88;1.60;;;;;;;19.07;63.57;100656.94;5076650;27;20068;-69
2023/09/20 08:14:19;;;;;;;4.55;1.98;;;;;;;18.98;63.98;100655.13;5066947;27;20068;-68
2023/09/20 08:19:32;;;;;;;6.30;1.90;;;;;;;18.85;64.11;100643.78;5079613;27;20079;-68
2023/09/20 08:22:00;;;;;;;4.07;1.60;;;;;;;18.99;63.89;100646.69;5079830;27;20064;-68
2023/09/20 09:00:32;;;;;;;3.53;1.70;;;;;;;19.63;64.21;100666.63;5129431;27;20142;-70
2023/09/20 09:03:03;;;;;;;5.18;2.30;;;;;;;19.29;63.80;100667.41;5135879;27;20068;-70
2023/09/20 09:05:32;;;;;;;6.72;2.17;;;;;;;19.34;64.55;100669.28;5130441;27;20084;-68
2023/09/20 09:08:02;;;;;;;5.75;2.42;;;;;;;19.27;64.53;100669.63;5132753;27;20051;-68
2023/09/20 09:10:31;;;;;;;9.02;2.20;;;;;;;19.33;64.31;100664.94;5129126;27;20047;-68
2023/09/20 09:13:00;;;;;;;6.38;2.00;;;;;;;19.42;64.06;100671.41;5125418;27;20106;-68
2023/09/20 09:15:29;;;;;;;6.10;1.95;;;;;;;19.25;64.37;100671.81;5130352;27;20043;-68
2023/09/20 09:17:57;;;;;;;5.53;2.15;;;;;;;19.29;64.58;100667.41;5135288;27;20087;-68
2023/09/20 09:20:28;;;;;;;5.32;2.20;;;;;;;19.38;64.67;100671.16;5130800;27;20085;-68
2023/09/20 09:22:56;;;;;;;3.25;1.80;;;;;;;19.65;64.53;100664.44;5133070;27;20073;-68
2023/09/20 09:25:29;;;;;;;4.90;1.90;;;;;;;19.68;64.04;100655.69;5127213;27;20059;-68
2023/09/20 09:27:57;;;;;;;3.63;1.60;;;;;;;19.39;64.33;100653.72;5129580;27;20110;-68
2023/09/20 09:30:27;;;;;;;3.85;1.83;;;;;;;19.28;64.62;100662.25;5130483;27;20514;-68
2023/09/20 09:32:55;;;;;;;6.20;2.22;;;;;;;19.21;64.95;100659.84;5131211;27;20048;-68
2023/09/20 09:35:23;;;;;;;5.78;1.70;;;;;;;19.24;65.00;100653.84;5126534;27;20136;-68
2023/09/20 09:38:12;;;;;;;4.90;1.63;;;;;;;19.47;64.33;100668.66;5131228;27;20047;-68
2023/09/20 09:40:52;;;;;;;7.80;1.80;;;;;;;19.43;64.97;100657.50;5134386;27;20039;-68
2023/09/20 09:43:20;;;;;;;6.45;2.08;;;;;;;19.32;64.94;100647.78;5120495;27;20060;-69
2023/09/20 09:45:50;;;;;;;2.90;1.52;;;;;;;19.37;65.34;100641.47;5043576;27;20061;-68
2023/09/20 09:48:20;;;;;;;4.50;1.75;;;;;;;19.30;65.03;100644.53;5052582;28;20057;-68
2023/09/20 09:50:49;;;;;;;5.90;1.80;;;;;;;19.54;65.46;100649.25;5028084;28;20076;-68
2023/09/20 09:53:20;;;;;;;3.28;2.08;;;;;;;19.43;64.84;100638.41;5062762;28;20069;-66
2023/09/20 09:55:49;;;;;;;3.30;1.63;;;;;;;19.58;65.37;100633.97;5052355;28;20081;-69
2023/09/20 09:58:18;;;;;;;3.15;1.50;;;;;;;19.76;63.89;100634.06;5046502;28;20113;-65
2023/09/20 10:00:53;;;;;;;5.72;2.22;;;;;;;19.52;64.48;100627.75;5068344;28;20047;-68
2023/09/20 10:03:29;;;;;;;5.10;1.67;;;;;;;19.61;65.30;100628.75;5068419;28;20073;-68
2023/09/20 10:06:01;;;;;;;;;;;;;;;19.55;64.74;100640.00;5033584;28;20042;-68
2023/09/20 10:08:32;;;;;;;3.63;1.70;;;;;;;19.46;64.98;100624.22;5078310;28;19939;-68
2023/09/20 10:11:01;;;;;;;6.35;1.70;;;;;;;19.42;65.17;100623.16;5055146;28;20049;-68
2023/09/20 10:13:30;;;;;;;3.85;1.80;;;;;;;19.39;65.11;100628.38;5062344;28;20047;-67
2023/09/20 10:16:02;;;;;;;2.88;1.60;;;;;;;19.45;65.54;100621.78;5070867;28;20077;-67
2023/09/20 10:18:34;;;;;;;3.38;1.58;;;;;;;19.41;65.19;100626.19;5061165;28;20049;-68
2023/09/20 10:21:10;;;;;;;3.55;2.13;;;;;;;19.49;66.21;100622.84;5058359;28;20184;-68
2023/09/20 10:23:38;;;;;;;5.28;2.03;;;;;;;19.56;65.05;100625.25;5053474;28;20045;-67
2023/09/20 10:26:13;;;;;;;4.43;1.75;;;;;;;19.51;65.42;100626.09;5084071;28;20560;-67
2023/09/20 10:28:42;;;;;;;7.30;2.00;;;;;;;19.67;64.92;100624.88;5072986;28;20489;-67
2023/09/20 10:31:15;;;;;;;3.47;1.83;;;;;;;19.55;65.16;100612.72;5060910;28;20045;-67
2023/09/20 10:33:47;;;;;;;4.95;1.65;;;;;;;19.60;65.34;100620.84;5063307;28;20050;-67
2023/09/20 10:36:22;;;;;;;4.28;1.48;;;;;;;19.75;65.77;100607.88;5079851;28;20048;-67
2023/09/20 10:39:21;;;;;;;4.30;1.77;;;;;;;19.78;64.77;100617.41;5062986;28;20082;-67
2023/09/20 10:41:51;;;;;;;4.68;1.85;;;;;;;19.96;65.07;100603.03;5048050;28;20795;-66
2023/09/20 10:44:28;;;;;;;4.13;1.63;;;;;;;19.77;64.83;100602.97;5085350;27;20178;-67
2023/09/20 10:46:59;;;;;;;5.50;2.00;;;;;;;19.67;65.15;100596.78;5143772;27;20531;-69
2023/09/20 10:49:45;;;;;;;4.15;1.70;;;;;;;19.75;65.07;100596.16;5138891;27;20160;-66
2023/09/20 10:52:13;;;;;;;4.10;1.48;;;;;;;19.66;65.20;100585.06;5138775;27;20050;-67
2023/09/20 10:54:41;;;;;;;1.98;1.60;;;;;;;19.92;64.85;100591.06;5141144;27;20047;-68
2023/09/20 10:57:10;;;;;;;3.35;1.40;;;;;;;19.99;64.55;100591.53;5141620;27;20047;-66
2023/09/20 10:59:41;;;;;;;3.30;1.75;;;;;;;20.11;64.24;100599.31;5141623;27;20462;-67
2023/09/20 11:02:16;;;;;;;3.63;1.65;;;;;;;20.01;64.76;100586.59;5141228;27;20043;-67
2023/09/20 11:04:46;;;;;;;3.22;1.50;;;;;;;20.17;64.36;100578.22;5133409;27;20055;-68
2023/09/20 11:07:15;;;;;;;3.20;1.17;;;;;;;19.94;64.53;100577.94;5139231;27;20066;-68
2023/09/20 11:09:46;;;;;;;3.92;1.42;;;;;;;19.83;64.89;100584.63;5142399;27;20059;-67
2023/09/20 11:12:14;;;;;;;4.95;1.73;;;;;;;19.77;65.13;100572.97;5143672;27;20500;-67
2023/09/20 11:14:44;;;;;;;4.18;1.83;;;;;;;19.76;65.11;100574.06;5141349;27;20062;-69
2023/09/20 11:17:16;;;;;;;2.95;1.27;;;;;;;19.73;64.96;100569.19;5143472;27;20051;-67
2023/09/20 11:19:44;;;;;;;2.53;1.40;;;;;;;19.74;65.00;100570.81;5142839;27;20125;-67
2023/09/20 11:22:14;;;;;;;3.90;1.40;;;;;;;19.82;64.96;100575.63;5142572;27;20129;-67
2023/09/20 11:24:43;;;;;;;5.55;1.70;;;;;;;19.78;64.91;100571.03;5141654;27;20047;-68
2023/09/20 11:27:11;;;;;;;6.53;2.15;;;;;;;19.78;64.99;100568.31;5142631;27;20047;-68
2023/09/20 11:29:43;;;;;;;2.88;1.58;;;;;;;19.78;64.97;100571.84;5094448;27;20050;-66
2023/09/20 11:32:11;;;;;;;6.22;1.50;;;;;;;19.90;64.81;100570.63;5140986;27;20050;-67
2023/09/20 11:34:46;;;;;;;2.33;1.20;;;;;;;19.95;64.53;100576.03;5140572;27;20509;-67
2023/09/20 11:37:19;;;;;;;4.43;1.75;;;;;;;20.06;65.05;100572.91;5143123;27;20054;-68
2023/09/20 11:39:47;;;;;;;3.10;1.35;;;;;;;20.10;64.97;100575.84;5142474;27;20122;-68
2023/09/20 11:42:26;;;;;;;4.55;1.55;;;;;;;20.05;64.67;100575.91;5142700;27;20043;-68
2023/09/20 11:44:56;;;;;;;11.10;3.05;;;;;;;20.12;64.34;100574.47;5098901;27;20143;-68
2023/09/20 11:47:41;;;;;;;13.52;3.00;;;;;;;20.14;65.09;100574.16;5079765;27;20042;-66
2023/09/20 11:50:14;;;;;;;5.15;1.85;;;;;;;20.26;64.37;100569.09;5079076;27;20080;-67
2023/09/20 11:52:46;;;;;;;11.15;2.28;;;;;;;20.37;64.63;100562.41;5084546;27;20042;-67
2023/09/20 11:55:15;;;;;;;9.73;2.03;;;;;;;20.37;64.52;100562.41;5070167;27;20044;-67
2023/09/20 11:57:45;;;;;;;6.90;2.80;;;;;;;20.33;63.94;100566.81;5095120;27;20057;-67
2023/09/20 12:00:17;;;;;;;10.52;2.40;;;;;;;20.45;64.03;100553.56;5105486;27;20048;-67
2023/09/20 12:02:45;;;;;;;4.57;1.88;;;;;;;20.46;63.86;100557.94;5094062;27;20049;-69
2023/09/20 12:05:17;;;;;;;8.18;1.90;;;;;;;20.26;64.26;100552.72;5075903;27;20494;-67
2023/09/20 12:07:53;;;;;;;6.07;1.77;;;;;;;20.41;64.20;100562.66;5100644;27;20042;-68
2023/09/20 12:10:21;;;;;;;7.22;1.70;;;;;;;20.36;63.63;100579.06;5082228;27;20047;-67
2023/09/20 12:12:50;;;;;;;5.07;1.77;;;;;;;20.27;63.78;100570.72;5070103;27;20111;-67
2023/09/20 12:15:18;;;;;;;4.72;1.67;;;;;;;20.22;63.91;100564.50;5064273;27;20058;-67